Ansted, West Virginia
Current Conditions -  °F | °C
As of 1:32 PM on Saturday 20 Dec 2014 (Local Time) from KBKW Reporting Station
Haze Haze  
Wind Chill: 35°   Ceiling: 1000
Heat Index: 35°   Visibility: 5mi
Dew Point: 30°   Wind: 3mph
Humidity: 82%   Direction: 240°WSW
Pressure: 30.13"   Gusts: NA
Location:  38.14°N, 81.1°W
Report Text: KBKW 201832Z AUTO 24003KT 5SM HZ OVC010 02/M01 A3013 RMK AO2 SNB1758E30 P0000 T00171011
Loading
Personal Weather Stations






























Interactive Weather Map New forecast layout! Learn more

10-Day Weather Forecast

Advertisements
Track Severe Weather on mobile